Time;durP1;ratioP1;P1;durP2;ratioP2;P2;SDS_P1;SDS_P2;PMS_P1;PMS_P2;Temp;Humidity;BMP_temperature;BMP_pressure;BME280_temperature;BME280_humidity;BME280_pressure;Samples;Min_cycle;Max_cycle;Signal;HPM_P1;HPM_P2
2023/07/06 07:01:22;;;;;;;0.10;0.10;;;22.40;99.90;22.80;101555.00;;;;6249976;22;1407997;-65
2023/07/06 07:03:50;;;;;;;0.40;0.38;;;21.10;99.90;24.70;101585.00;;;;6309047;22;20225;-65
2023/07/06 07:06:22;;;;;;;0.30;0.30;;;22.10;99.90;21.60;101535.00;;;;6309893;22;20630;-64
2023/07/06 07:08:53;;;;;;;0.28;0.28;;;20.50;99.90;22.10;101519.00;;;;6309323;22;20140;-64
2023/07/06 07:11:22;;;;;;;0.10;0.10;;;19.90;99.90;27.00;101568.00;;;;6283090;22;20164;-65
2023/07/06 07:13:52;;;;;;;0.10;0.10;;;22.00;99.90;28.00;101605.00;;;;6309477;22;20231;-65
2023/07/06 07:16:25;;;;;;;0.22;0.22;;;23.70;99.90;28.20;101620.00;;;;6309457;22;20224;-65
2023/07/06 07:18:54;;;;;;;0.10;0.10;;;24.50;99.90;27.20;101645.00;;;;6282333;22;20140;-65
2023/07/06 07:21:30;;;;;;;0.22;0.22;;;24.20;99.90;24.60;101657.00;;;;6309350;22;20144;-65
2023/07/06 07:24:01;;;;;;;0.10;0.10;;;22.80;99.90;29.10;101622.00;;;;6308866;22;20148;-65
2023/07/06 07:26:30;;;;;;;0.55;0.50;;;24.20;99.90;30.20;101614.00;;;;6309471;22;20141;-65
2023/07/06 07:29:01;;;;;;;0.20;0.20;;;26.40;99.90;24.50;101682.00;;;;6309193;22;20152;-65
2023/07/06 07:31:35;;;;;;;2.17;1.17;;;23.70;99.90;23.10;101606.00;;;;6309216;22;20187;-64
2023/07/06 07:34:05;;;;;;;0.60;0.60;;;21.50;99.90;25.80;101624.00;;;;6282228;22;20667;-64
2023/07/06 07:36:36;;;;;;;0.30;0.30;;;22.10;99.90;23.50;101604.00;;;;6309460;22;20140;-64
2023/07/06 07:39:06;;;;;;;0.10;0.10;;;21.30;99.90;23.20;101572.00;;;;6309000;22;20148;-64
2023/07/06 07:41:37;;;;;;;0.35;0.35;;;20.80;99.90;24.20;101592.00;;;;6309369;22;20136;-64
2023/07/06 07:44:04;;;;;;;1.38;1.23;;;21.30;99.90;23.50;101600.00;;;;6282251;22;20141;-64
2023/07/06 07:46:32;;;;;;;0.25;0.25;;;21.20;99.90;24.40;101583.00;;;;6281854;22;20526;-65
2023/07/06 07:49:04;;;;;;;1.05;0.28;;;21.40;99.90;26.70;101602.00;;;;6308805;22;20536;-65
2023/07/06 07:51:32;;;;;;;0.98;0.70;;;22.40;99.90;25.60;101665.00;;;;6281775;22;20159;-65
2023/07/06 07:54:01;;;;;;;1.75;1.10;;;23.00;99.90;23.70;101651.00;;;;6281980;22;20160;-64
2023/07/06 07:56:29;;;;;;;0.20;0.20;;;21.80;99.90;24.50;101607.00;;;;6309291;22;20147;-64
2023/07/06 07:58:58;;;;;;;2.05;0.70;;;21.30;99.90;25.10;101648.00;;;;6309003;22;20144;-64
2023/07/06 08:01:30;;;;;;;2.70;1.70;;;22.20;99.90;23.50;101640.00;;;;6309324;22;20483;-64
2023/07/06 08:04:02;;;;;;;0.10;0.10;;;21.50;99.90;24.90;101616.00;;;;6309059;22;20562;-64
2023/07/06 08:06:31;;;;;;;4.03;1.10;;;21.30;99.90;23.10;101663.00;;;;6281586;22;20231;-64
2023/07/06 08:09:03;;;;;;;0.10;0.10;;;21.40;99.90;26.60;101599.00;;;;6308786;22;20147;-64
2023/07/06 08:11:37;;;;;;;0.90;0.68;;;22.30;99.90;27.60;101666.00;;;;6308914;22;20198;-65
2023/07/06 08:14:07;;;;;;;4.00;0.47;;;24.40;99.90;26.70;101681.00;;;;6309075;22;20174;-64
2023/07/06 08:16:37;;;;;;;0.10;0.10;;;23.50;99.90;26.30;101676.00;;;;6309115;22;20572;-64
2023/07/06 08:19:06;;;;;;;0.40;0.40;;;23.10;99.90;27.40;101665.00;;;;6282515;22;20137;-64
2023/07/06 08:21:44;;;;;;;0.10;0.10;;;23.70;99.90;30.70;101614.00;;;;6308733;22;20147;-65
2023/07/06 08:24:13;;;;;;;1.02;0.63;;;25.80;99.90;25.20;101705.00;;;;6309139;22;20136;-64
2023/07/06 08:26:39;;;;;;;0.10;0.10;;;24.20;99.90;26.90;101679.00;;;;6308723;22;20140;-65
2023/07/06 08:29:07;;;;;;;2.90;0.75;;;23.30;99.90;25.80;101699.00;;;;6308993;22;20137;-65
2023/07/06 08:31:39;;;;;;;14.07;1.33;;;23.20;99.90;27.50;101673.00;;;;6308411;22;20175;-64
2023/07/06 08:34:10;;;;;;;5.00;4.68;;;23.90;99.90;27.30;101665.00;;;;6308958;22;20181;-64
2023/07/06 08:36:39;;;;;;;0.70;0.70;;;23.90;99.90;30.20;101627.00;;;;6308405;22;20219;-65
2023/07/06 08:39:10;;;;;;;1.23;0.93;;;25.70;99.90;27.70;101647.00;;;;6308861;22;20141;-65
2023/07/06 08:41:48;;;;;;;0.10;0.10;;;24.90;99.90;25.80;101689.00;;;;6308234;22;20147;-65
2023/07/06 08:44:17;;;;;;;1.33;1.23;;;23.80;99.90;25.40;101692.00;;;;6308425;22;20518;-65
2023/07/06 08:46:50;;;;;;;0.10;0.10;;;22.90;99.90;26.40;101682.00;;;;6308195;22;20153;-65
2023/07/06 08:49:29;;;;;;;0.85;0.73;;;23.20;99.90;27.50;101658.00;;;;6281922;22;20152;-65
2023/07/06 08:52:05;;;;;;;0.10;0.10;;;23.50;99.90;28.50;101649.00;;;;6308442;22;20467;-65
2023/07/06 08:54:39;;;;;;;0.10;0.10;;;24.10;99.90;28.20;101655.00;;;;6308839;22;20201;-65
2023/07/06 08:57:30;;;;;;;0.10;0.10;;;24.10;99.90;24.40;101710.00;;;;6280914;22;20155;-64
2023/07/06 09:00:00;;;;;;;0.20;0.20;;;22.30;99.90;26.80;101672.00;;;;6281417;22;20246;-65
2023/07/06 09:02:42;;;;;;;0.45;0.45;;;22.90;99.90;23.80;101742.00;;;;6307934;22;20198;-64
2023/07/06 09:05:34;;;;;;;0.10;0.10;;;21.80;99.90;24.90;101723.00;;;;6255833;22;20595;-64
2023/07/06 09:08:23;;;;;;;0.43;0.30;;;21.20;99.90;26.50;101695.00;;;;6281160;22;20205;-65
2023/07/06 09:10:55;;;;;;;0.50;0.40;;;22.30;99.90;23.40;101741.00;;;;6280793;22;20154;-64
2023/07/06 09:13:55;;;;;;;0.10;0.10;;;21.20;99.90;24.30;101733.00;;;;6281358;22;20225;-64
2023/07/06 09:16:25;;;;;;;0.60;0.60;;;20.90;99.90;25.50;101722.00;;;;6281493;22;20223;-65
2023/07/06 09:19:05;;;;;;;0.10;0.10;;;22.40;99.90;27.10;101693.00;;;;6307774;22;20636;-64
2023/07/06 09:21:36;;;;;;;0.10;0.10;;;23.20;99.90;26.30;101712.00;;;;6281133;22;20156;-64
2023/07/06 09:24:07;;;;;;;0.10;0.10;;;23.00;99.90;26.00;101722.00;;;;6255955;22;20152;-64
2023/07/06 09:26:35;;;;;;;0.57;0.57;;;22.40;99.90;26.70;101687.00;;;;6280768;22;20171;-65
2023/07/06 09:29:18;;;;;;;0.20;0.20;;;23.00;99.90;24.40;101743.00;;;;6255471;22;20155;-64
2023/07/06 09:31:49;;;;;;;0.22;0.22;;;21.90;99.90;23.50;101755.00;;;;6280736;22;20506;-64
2023/07/06 09:34:34;;;;;;;0.20;0.20;;;21.10;99.90;24.10;101742.00;;;;6307728;22;20470;-64
2023/07/06 09:37:03;;;;;;;0.32;0.32;;;21.10;99.90;24.00;101755.00;;;;6308205;22;20152;-64
2023/07/06 09:39:29;;;;;;;0.10;0.10;;;20.90;99.90;24.80;101739.00;;;;6308143;22;20140;-65
2023/07/06 09:42:01;;;;;;;0.10;0.10;;;21.00;99.90;25.80;101723.00;;;;6307614;22;20190;-64
2023/07/06 09:44:34;;;;;;;0.20;0.20;;;21.70;99.90;23.80;101722.00;;;;6281495;22;20140;-64
2023/07/06 09:47:09;;;;;;;0.35;0.35;;;21.30;99.90;24.40;101744.00;;;;6280991;22;20144;-65
2023/07/06 09:49:46;;;;;;;0.10;0.10;;;20.80;99.90;25.70;101723.00;;;;6280994;22;20133;-65
2023/07/06 09:52:16;;;;;;;0.30;0.30;;;21.40;99.90;26.20;101703.00;;;;6280654;22;20255;-65
2023/07/06 09:55:02;;;;;;;0.13;0.13;;;22.20;99.90;24.30;101742.00;;;;6308184;22;20144;-64
2023/07/06 09:57:36;;;;;;;0.38;0.38;;;21.50;99.90;24.50;101740.00;;;;6307982;22;20149;-66
2023/07/06 10:00:36;;;;;;;0.50;0.50;;;21.20;99.90;24.50;101755.00;;;;6280116;22;20164;-65
2023/07/06 10:03:33;;;;;;;0.10;0.10;;;21.30;99.90;23.20;101767.00;;;;6254915;22;20188;-65
2023/07/06 10:06:56;;;;;;;0.10;0.10;;;20.50;99.90;24.10;101756.00;;;;6254654;22;20160;-65
2023/07/06 10:10:13;;;;;;;0.25;0.25;;;20.50;99.90;24.80;101746.00;;;;6271214;22;20164;-65
2023/07/06 10:13:14;;;;;;;0.10;0.10;;;21.10;99.90;24.80;101747.00;;;;6280212;22;20156;-65
2023/07/06 10:15:59;;;;;;;0.10;0.10;;;21.20;99.90;25.40;101736.00;;;;6274307;22;20197;-66
2023/07/06 10:18:57;;;;;;;0.13;0.13;;;21.20;99.90;26.50;101716.00;;;;6280418;22;20164;-66
2023/07/06 10:33:56;;;;;;;0.10;0.10;;;20.30;99.90;25.10;101747.00;;;;5070437;28;20552;-65
2023/07/06 10:36:39;;;;;;;0.10;0.10;;;21.00;99.90;26.60;101709.00;;;;5061781;28;20185;-63
2023/07/06 10:39:24;;;;;;;0.10;0.10;;;21.90;99.90;27.20;101663.00;;;;5069305;28;20239;-63
2023/07/06 10:42:09;;;;;;;0.35;0.30;;;22.60;99.90;27.10;101681.00;;;;5068877;28;20185;-64
2023/07/06 10:44:43;;;;;;;0.10;0.10;;;23.00;99.90;26.00;101694.00;;;;5068951;28;20200;-64
2023/07/06 10:47:28;;;;;;;0.10;0.10;;;22.80;99.90;27.20;101680.00;;;;5059863;28;20660;-64
2023/07/06 10:50:25;;;;;;;0.10;0.10;;;22.80;99.90;27.50;101679.00;;;;5070314;28;20196;-64
2023/07/06 10:53:35;;;;;;;0.10;0.10;;;23.20;99.90;24.90;101726.00;;;;5061646;28;20292;-64
2023/07/06 10:56:07;;;;;;;1.10;0.98;;;22.20;99.90;23.70;101760.00;;;;5067119;28;20227;-64
2023/07/06 10:58:38;;;;;;;0.65;0.38;;;21.00;99.90;24.30;101760.00;;;;5067188;28;20239;-64
2023/07/06 11:01:19;;;;;;;0.10;0.10;;;20.90;99.90;25.00;101748.00;;;;5068455;28;20643;-64
2023/07/06 11:03:51;;;;;;;0.10;0.10;;;21.00;99.90;25.30;101742.00;;;;5069807;28;20185;-64
2023/07/06 11:06:42;;;;;;;0.10;0.10;;;21.30;99.90;25.30;101740.00;;;;5060934;28;20620;-66
2023/07/06 11:09:17;;;;;;;3.17;0.50;;;21.40;99.90;26.20;101720.00;;;;5065300;28;20528;-64
2023/07/06 11:12:10;;;;;;;0.10;0.10;;;22.30;99.90;25.20;101715.00;;;;5069999;28;20292;-64
2023/07/06 11:14:39;;;;;;;0.10;0.10;;;22.10;99.90;27.80;101703.00;;;;5044125;28;20594;-64
2023/07/06 11:17:40;;;;;;;0.10;0.10;;;23.00;99.90;28.60;101681.00;;;;5068362;28;20602;-64
2023/07/06 11:20:17;;;;;;;0.30;0.30;;;24.00;99.90;27.70;101687.00;;;;5067516;28;20200;-64
2023/07/06 11:22:56;;;;;;;0.80;0.80;;;24.40;99.90;29.40;101675.00;;;;5068303;28;20647;-64
2023/07/06 11:25:28;;;;;;;0.30;0.30;;;24.70;99.90;27.20;101700.00;;;;5065283;28;20268;-64
2023/07/06 11:28:05;;;;;;;2.35;2.15;;;24.60;99.90;26.20;101717.00;;;;5069521;28;20188;-64
2023/07/06 11:31:02;;;;;;;2.55;0.95;;;23.70;99.90;26.70;101709.00;;;;5066699;28;20616;-64
2023/07/06 11:33:48;;;;;;;0.55;0.55;;;24.20;99.90;30.10;101669.00;;;;5068137;28;20182;-64
2023/07/06 11:36:24;;;;;;;0.90;0.73;;;25.90;99.90;27.60;101709.00;;;;5067465;28;20176;-64
2023/07/06 11:39:18;;;;;;;4.47;0.50;;;25.20;99.90;29.90;101679.00;;;;5069328;28;20235;-65
2023/07/06 11:41:59;;;;;;;0.10;0.10;;;26.00;99.90;27.50;101711.00;;;;5057599;28;20190;-65
2023/07/06 11:44:46;;;;;;;0.10;0.10;;;25.00;99.90;28.70;101698.00;;;;5057294;28;20190;-65
2023/07/06 11:47:23;;;;;;;0.20;0.20;;;25.60;99.90;27.50;101693.00;;;;5054363;28;20186;-65
2023/07/06 11:50:02;;;;;;;0.30;0.30;;;24.50;99.90;29.80;101688.00;;;;5054737;28;20178;-65
2023/07/06 11:52:44;;;;;;;0.15;0.15;;;25.30;99.90;26.80;101725.00;;;;5054647;28;20208;-64
2023/07/06 11:55:31;;;;;;;0.10;0.10;;;24.60;99.90;27.60;101729.00;;;;5052787;28;20579;-65
2023/07/06 11:58:29;;;;;;;0.43;0.40;;;24.00;99.90;26.40;101739.00;;;;5046306;28;20190;-64
2023/07/06 12:01:10;;;;;;;0.20;0.20;;;23.60;99.90;26.40;101747.00;;;;5048153;28;20637;-64
2023/07/06 12:03:59;;;;;;;1.00;0.85;;;23.10;99.90;27.80;101732.00;;;;5054609;28;20196;-64
2023/07/06 12:06:28;;;;;;;3.42;0.30;;;23.50;99.90;25.50;101758.00;;;;5054223;28;20636;-64
2023/07/06 12:08:56;;;;;;;0.20;0.20;;;23.00;99.90;27.60;101750.00;;;;5055358;28;20185;-65
2023/07/06 12:11:25;;;;;;;0.10;0.10;;;23.40;99.90;28.60;101699.00;;;;5054269;28;20614;-65
2023/07/06 12:13:58;;;;;;;0.13;0.13;;;24.50;99.90;27.80;101739.00;;;;5055330;28;20194;-64
2023/07/06 12:16:41;;;;;;;0.10;0.10;;;24.10;99.90;27.80;101731.00;;;;5054043;28;20190;-64
2023/07/06 12:19:15;;;;;;;0.10;0.10;;;24.30;99.90;29.20;101714.00;;;;5055402;28;20181;-65
2023/07/06 12:21:52;;;;;;;0.40;0.40;;;24.90;99.90;25.80;101766.00;;;;5022714;28;20267;-64
2023/07/06 12:24:25;;;;;;;0.10;0.10;;;23.50;99.90;27.80;101745.00;;;;5051312;28;20643;-64
2023/07/06 12:27:01;;;;;;;0.35;0.15;;;23.90;99.90;27.20;101744.00;;;;5045316;28;20663;-65
2023/07/06 12:29:36;;;;;;;0.10;0.10;;;24.10;99.90;27.10;101740.00;;;;5055008;28;20190;-64
2023/07/06 12:32:28;;;;;;;0.15;0.15;;;23.60;99.90;27.50;101736.00;;;;5054552;28;20209;-65
2023/07/06 12:34:56;;;;;;;0.10;0.10;;;23.60;99.90;27.50;101738.00;;;;5046000;28;20186;-65
2023/07/06 12:37:29;;;;;;;0.10;0.10;;;23.50;99.90;26.90;101746.00;;;;5054058;28;20225;-64
2023/07/06 12:39:56;;;;;;;0.10;0.10;;;23.30;99.90;25.90;101765.00;;;;5053789;28;20186;-64
2023/07/06 12:42:27;;;;;;;0.10;0.10;;;23.00;99.90;28.20;101741.00;;;;5054466;28;20680;-65
2023/07/06 12:44:54;;;;;;;0.10;0.10;;;23.70;99.90;28.50;101708.00;;;;5053705;28;20315;-65
2023/07/06 12:47:43;;;;;;;5.88;2.08;;;24.40;99.90;26.00;101748.00;;;;5037080;28;20185;-65
2023/07/06 12:50:16;;;;;;;0.38;0.38;;;23.80;99.90;26.10;101729.00;;;;5054675;28;20323;-64
2023/07/06 12:52:45;;;;;;;0.10;0.10;;;23.10;99.90;27.20;101734.00;;;;5054482;28;20281;-64
2023/07/06 12:55:17;;;;;;;0.40;0.40;;;23.30;99.90;26.40;101739.00;;;;5053450;28;20189;-65
2023/07/06 12:57:45;;;;;;;0.10;0.10;;;23.60;99.90;26.60;101737.00;;;;5054397;28;20643;-65
2023/07/06 13:00:17;;;;;;;0.10;0.10;;;23.10;99.90;28.60;101716.00;;;;5054247;28;20269;-65
2023/07/06 13:02:54;;;;;;;0.80;0.30;;;24.00;99.90;27.10;101727.00;;;;5053600;28;20467;-65
2023/07/06 13:05:31;;;;;;;0.20;0.20;;;23.80;99.90;28.10;101706.00;;;;5054304;28;20193;-65
2023/07/06 13:07:57;;;;;;;0.38;0.38;;;24.10;99.90;28.00;101704.00;;;;5054040;28;20196;-64
2023/07/06 13:10:26;;;;;;;0.57;0.57;;;24.10;99.90;26.70;101727.00;;;;5054110;28;20182;-64
2023/07/06 13:12:57;;;;;;;0.30;0.30;;;23.50;99.90;27.50;101713.00;;;;5054118;28;20296;-64
2023/07/06 13:15:45;;;;;;;0.20;0.20;;;23.50;99.90;28.00;101706.00;;;;5046029;28;20185;-65
2023/07/06 13:18:17;;;;;;;2.30;0.88;;;23.90;99.90;29.30;101677.00;;;;5053517;28;20667;-65
2023/07/06 13:20:45;;;;;;;0.10;0.10;;;24.80;99.90;27.90;101704.00;;;;5054103;28;20182;-64
2023/07/06 13:23:12;;;;;;;0.73;0.73;;;24.40;99.90;26.90;101717.00;;;;5054099;28;20190;-65
2023/07/06 13:25:48;;;;;;;0.10;0.10;;;23.90;99.90;28.40;101705.00;;;;5053713;28;20213;-64
2023/07/06 13:28:20;;;;;;;0.10;0.10;;;24.10;99.90;27.90;101688.00;;;;5054187;28;20578;-65
2023/07/06 13:30:51;;;;;;;1.20;1.20;;;24.30;99.90;27.50;101709.00;;;;5054178;28;20671;-64
2023/07/06 13:33:19;;;;;;;1.35;0.20;;;24.00;99.90;26.80;101723.00;;;;5052333;28;20213;-64
2023/07/06 13:35:51;;;;;;;0.10;0.10;;;23.40;99.90;27.30;101721.00;;;;5052945;28;20200;-65
2023/07/06 13:38:21;;;;;;;0.10;0.10;;;23.40;99.90;27.30;101704.00;;;;5052484;28;20185;-64
2023/07/06 13:40:50;;;;;;;0.30;0.30;;;23.50;99.90;25.90;101739.00;;;;5053588;28;20202;-65
2023/07/06 13:43:18;;;;;;;0.57;0.57;;;23.20;99.90;26.90;101729.00;;;;5048957;28;20635;-65
2023/07/06 13:45:49;;;;;;;1.38;0.55;;;23.40;99.90;26.70;101734.00;;;;5053918;28;20175;-64
2023/07/06 13:48:21;;;;;;;0.10;0.10;;;23.40;99.90;26.50;101698.00;;;;5053466;28;20191;-65
2023/07/06 13:50:50;;;;;;;0.10;0.10;;;23.30;99.90;27.20;101723.00;;;;5053369;28;20302;-64
2023/07/06 13:53:20;;;;;;;0.10;0.10;;;23.40;99.90;27.10;101727.00;;;;5053331;28;20252;-63
2023/07/06 13:55:55;;;;;;;0.10;0.10;;;23.50;99.90;28.10;101677.00;;;;5052167;28;20182;-63
2023/07/06 13:58:26;;;;;;;0.10;0.10;;;23.70;99.90;27.60;101698.00;;;;5053384;28;20190;-64
2023/07/06 14:00:52;;;;;;;0.10;0.10;;;23.90;99.90;27.20;101683.00;;;;5047253;28;20197;-64
2023/07/06 14:03:31;;;;;;;0.10;0.10;;;23.60;99.90;27.60;101710.00;;;;5051992;28;20189;-63
2023/07/06 14:06:03;;;;;;;0.22;0.22;;;23.70;99.90;27.60;101699.00;;;;5051714;28;20170;-64
2023/07/06 14:08:35;;;;;;;0.35;0.30;;;23.90;99.90;27.10;101708.00;;;;5052949;28;20617;-64
2023/07/06 14:11:05;;;;;;;0.10;0.10;;;23.80;99.90;26.70;101712.00;;;;5053711;28;20540;-63
2023/07/06 14:13:41;;;;;;;0.28;0.28;;;23.60;99.90;26.90;101714.00;;;;5052199;28;20201;-64
2023/07/06 14:16:11;;;;;;;0.10;0.10;;;23.60;99.90;27.40;101695.00;;;;5052189;28;20276;-63
2023/07/06 14:18:40;;;;;;;0.25;0.20;;;23.70;99.90;27.50;101703.00;;;;5051951;28;20261;-64
2023/07/06 14:21:06;;;;;;;0.10;0.10;;;23.70;99.90;27.50;101696.00;;;;5053226;28;20276;-64
2023/07/06 14:23:35;;;;;;;0.10;0.10;;;24.00;99.90;28.40;101687.00;;;;5052959;28;20266;-64
2023/07/06 14:26:06;;;;;;;0.57;0.40;;;24.10;99.90;28.10;101692.00;;;;5053101;28;20655;-64
2023/07/06 14:28:38;;;;;;;0.10;0.10;;;24.60;99.90;27.00;101716.00;;;;5053157;28;20249;-64
2023/07/06 14:31:12;;;;;;;0.10;0.10;;;24.10;99.90;27.60;101665.00;;;;5052908;28;20178;-64
2023/07/06 14:33:48;;;;;;;0.40;0.20;;;24.20;99.90;27.40;101709.00;;;;5051636;28;20269;-64
2023/07/06 14:36:15;;;;;;;0.20;0.20;;;24.20;99.90;27.60;101704.00;;;;5053104;28;20226;-64
2023/07/06 14:38:45;;;;;;;0.10;0.10;;;24.00;99.90;28.00;101696.00;;;;5052772;28;20170;-64
2023/07/06 14:41:13;;;;;;;0.10;0.10;;;24.10;99.90;27.70;101698.00;;;;5048512;28;20194;-64
2023/07/06 14:43:44;;;;;;;0.10;0.10;;;24.00;99.90;28.70;101684.00;;;;5050220;28;20269;-64
2023/07/06 14:46:11;;;;;;;0.20;0.20;;;24.20;99.90;28.00;101689.00;;;;5053079;28;20190;-64
2023/07/06 14:48:39;;;;;;;0.10;0.10;;;24.30;99.90;28.10;101658.00;;;;5051129;28;20264;-64
2023/07/06 14:51:09;;;;;;;0.85;0.40;;;24.30;99.90;26.90;101700.00;;;;5052993;28;20190;-64
2023/07/06 14:53:42;;;;;;;0.10;0.10;;;24.00;99.90;28.00;101689.00;;;;5051864;28;20178;-64
2023/07/06 14:56:10;;;;;;;0.10;0.10;;;24.00;99.90;27.50;101688.00;;;;5053194;28;20182;-64
2023/07/06 14:58:42;;;;;;;0.20;0.20;;;24.00;99.90;27.30;101700.00;;;;5052700;28;20186;-64
2023/07/06 15:01:15;;;;;;;0.10;0.10;;;23.90;99.90;27.40;101674.00;;;;5053000;28;20182;-64
2023/07/06 15:03:46;;;;;;;0.10;0.10;;;23.90;99.90;26.60;101698.00;;;;5052389;28;20182;-64
2023/07/06 15:06:15;;;;;;;0.10;0.10;;;23.70;99.90;27.40;101694.00;;;;5052497;28;20645;-64
2023/07/06 15:08:50;;;;;;;0.90;0.40;;;23.60;99.90;27.70;101689.00;;;;5052424;28;20170;-64
2023/07/06 15:11:22;;;;;;;4.15;0.98;;;23.70;99.90;27.60;101682.00;;;;5051187;28;20796;-64
2023/07/06 15:13:52;;;;;;;0.10;0.10;;;23.90;99.90;27.30;101686.00;;;;5052624;28;20286;-64
2023/07/06 15:16:21;;;;;;;0.10;0.10;;;23.80;99.90;28.10;101679.00;;;;5052930;28;20588;-64
2023/07/06 15:18:49;;;;;;;0.32;0.32;;;23.70;99.90;26.30;101700.00;;;;5053993;28;20194;-64
2023/07/06 15:21:21;;;;;;;0.63;0.63;;;23.50;99.90;27.00;101693.00;;;;5056257;28;20212;-64
2023/07/06 15:23:58;;;;;;;0.10;0.10;;;23.30;99.90;27.60;101682.00;;;;5056106;28;20191;-64
2023/07/06 15:26:29;;;;;;;0.10;0.10;;;23.50;99.90;27.80;101677.00;;;;5056503;28;20193;-64
2023/07/06 15:29:00;;;;;;;0.20;0.20;;;23.70;99.90;27.60;101681.00;;;;5053941;28;20186;-64
2023/07/06 15:31:28;;;;;;;0.20;0.20;;;23.70;99.90;28.60;101662.00;;;;5055776;28;20553;-64
2023/07/06 15:34:03;;;;;;;0.10;0.10;;;24.10;99.90;28.80;101657.00;;;;5054939;28;20186;-64
2023/07/06 15:36:34;;;;;;;0.10;0.10;;;24.40;99.90;27.90;101651.00;;;;5055731;28;20589;-64
2023/07/06 15:39:05;;;;;;;0.32;0.32;;;24.20;99.90;27.50;101669.00;;;;5056452;28;20200;-65
2023/07/06 15:41:36;;;;;;;0.20;0.20;;;24.10;99.90;27.10;101667.00;;;;5055899;28;20189;-64
2023/07/06 15:44:05;;;;;;;0.10;0.10;;;23.80;99.90;26.90;101663.00;;;;5055824;28;20213;-64
2023/07/06 15:46:33;;;;;;;0.52;0.35;;;23.60;99.90;26.90;101665.00;;;;5053175;28;20264;-64
2023/07/06 15:49:05;;;;;;;0.10;0.10;;;23.50;99.90;27.00;101637.00;;;;5056103;28;20183;-64
2023/07/06 15:51:32;;;;;;;2.10;1.13;;;23.40;99.90;26.90;101669.00;;;;5051309;28;20212;-64
2023/07/06 15:54:02;;;;;;;0.10;0.10;;;23.40;99.90;27.90;101654.00;;;;5055258;28;20185;-64
2023/07/06 15:56:30;;;;;;;0.22;0.22;;;23.70;99.90;28.40;101654.00;;;;5054393;28;20190;-64
2023/07/06 15:59:01;;;;;;;0.10;0.10;;;23.90;99.90;27.60;101660.00;;;;5055350;28;20605;-64
2023/07/06 16:01:30;;;;;;;0.55;0.32;;;24.00;99.90;27.40;101654.00;;;;5055747;28;20222;-64
2023/07/06 16:04:05;;;;;;;0.25;0.25;;;24.00;99.90;27.50;101643.00;;;;5054038;28;20178;-64
2023/07/06 16:06:35;;;;;;;1.55;0.45;;;23.90;99.90;27.20;101651.00;;;;5055327;28;20178;-64
2023/07/06 16:09:02;;;;;;;0.10;0.10;;;23.80;99.90;28.10;101635.00;;;;5055311;28;20193;-64
2023/07/06 16:11:37;;;;;;;0.20;0.20;;;23.90;99.90;28.30;101634.00;;;;5055157;28;20203;-64
2023/07/06 16:14:11;;;;;;;0.20;0.20;;;24.10;99.90;28.70;101619.00;;;;5054141;28;20193;-64
2023/07/06 16:16:39;;;;;;;0.10;0.10;;;24.30;99.90;27.00;101656.00;;;;5055221;28;20185;-64
2023/07/06 16:19:07;;;;;;;0.30;0.30;;;24.00;99.90;28.00;101648.00;;;;5055281;28;20182;-64
2023/07/06 16:21:33;;;;;;;0.10;0.10;;;24.00;99.90;28.10;101639.00;;;;5053053;28;20190;-64
2023/07/06 16:24:02;;;;;;;0.10;0.10;;;24.10;99.90;28.90;101646.00;;;;5055570;28;20183;-64
2023/07/06 16:26:31;;;;;;;0.10;0.10;;;24.60;99.90;29.20;101638.00;;;;5054795;28;20193;-64
2023/07/06 16:29:00;;;;;;;0.35;0.35;;;24.80;99.90;27.10;101644.00;;;;5053762;28;20174;-64
2023/07/06 16:31:28;;;;;;;0.20;0.20;;;24.30;99.90;28.50;101638.00;;;;5050622;28;20203;-64
2023/07/06 16:33:56;;;;;;;0.10;0.10;;;24.30;99.90;28.10;101651.00;;;;5052364;28;20208;-65
2023/07/06 16:36:25;;;;;;;0.10;0.10;;;24.40;99.90;28.00;101649.00;;;;5054701;28;20625;-65
2023/07/06 16:38:51;;;;;;;0.52;0.50;;;24.40;99.90;26.90;101644.00;;;;5054875;28;20709;-65
2023/07/06 16:41:23;;;;;;;0.43;0.22;;;24.00;99.90;27.90;101642.00;;;;5052475;28;20567;-64
2023/07/06 16:43:51;;;;;;;0.20;0.20;;;24.20;99.90;28.20;101639.00;;;;5054671;28;20201;-65
2023/07/06 16:46:19;;;;;;;0.32;0.32;;;24.30;99.90;26.20;101655.00;;;;5053471;28;20261;-64
2023/07/06 16:48:47;;;;;;;0.10;0.10;;;23.70;99.90;27.50;101654.00;;;;5054437;28;20184;-65
2023/07/06 16:51:19;;;;;;;0.10;0.10;;;23.80;99.90;27.40;101650.00;;;;5053305;28;20178;-65
2023/07/06 16:53:44;;;;;;;0.10;0.10;;;23.90;99.90;27.00;101654.00;;;;5053422;28;20189;-65
2023/07/06 16:56:29;;;;;;;0.10;0.10;;;23.80;99.90;26.60;101659.00;;;;5054513;28;20193;-65
2023/07/06 16:58:57;;;;;;;0.10;0.10;;;23.70;99.90;27.90;101654.00;;;;5047508;28;20667;-65
2023/07/06 17:01:26;;;;;;;0.10;0.10;;;23.70;99.90;28.00;101651.00;;;;5056303;28;20205;-65
2023/07/06 17:03:55;;;;;;;0.10;0.10;;;24.00;99.90;28.30;101647.00;;;;5047948;28;20274;-65
2023/07/06 17:06:26;;;;;;;0.10;0.10;;;24.20;99.90;27.90;101646.00;;;;5054530;28;20196;-65
2023/07/06 17:08:52;;;;;;;0.10;0.10;;;24.20;99.90;26.90;101652.00;;;;5054270;28;20188;-65
2023/07/06 17:11:24;;;;;;;0.10;0.10;;;23.80;99.90;27.00;101659.00;;;;5053678;28;20423;-64
2023/07/06 17:13:49;;;;;;;0.77;0.77;;;23.50;99.90;26.30;101662.00;;;;5053148;28;20264;-65
2023/07/06 17:16:20;;;;;;;0.25;0.25;;;23.30;99.90;26.90;101658.00;;;;5054106;28;20205;-65
2023/07/06 17:18:48;;;;;;;1.25;0.30;;;23.40;99.90;27.40;101657.00;;;;5054042;28;20198;-65
2023/07/06 17:21:14;;;;;;;0.10;0.10;;;23.70;99.90;27.50;101661.00;;;;5054220;28;20221;-65
2023/07/06 17:23:47;;;;;;;0.10;0.10;;;23.60;99.90;27.20;101662.00;;;;5053834;28;20189;-65
2023/07/06 17:26:15;;;;;;;0.10;0.10;;;23.70;99.90;27.30;101664.00;;;;5038669;28;20189;-65
2023/07/06 17:28:43;;;;;;;0.10;0.10;;;23.80;99.90;27.50;101661.00;;;;5050495;28;20186;-65
2023/07/06 17:31:13;;;;;;;0.10;0.10;;;23.70;99.90;28.20;101657.00;;;;5053444;28;20639;-65
2023/07/06 17:33:49;;;;;;;0.10;0.10;;;23.90;99.90;27.20;101661.00;;;;5053952;28;20179;-64
2023/07/06 17:36:17;;;;;;;0.10;0.10;;;23.80;99.90;27.90;101654.00;;;;5053898;28;20178;-65
2023/07/06 17:38:45;;;;;;;0.30;0.30;;;23.80;99.90;27.00;101659.00;;;;5051683;28;20192;-65
2023/07/06 17:41:17;;;;;;;0.10;0.10;;;23.70;99.90;26.90;101664.00;;;;5053325;28;20178;-65
2023/07/06 17:43:55;;;;;;;0.10;0.10;;;23.40;99.90;28.00;101658.00;;;;5053583;28;20201;-65
2023/07/06 17:46:21;;;;;;;0.10;0.10;;;23.80;99.90;27.00;101633.00;;;;5053353;28;20182;-65
2023/07/06 17:48:53;;;;;;;0.15;0.15;;;23.40;99.90;27.50;101648.00;;;;5052426;28;20193;-65
2023/07/06 17:51:21;;;;;;;0.32;0.32;;;23.50;99.90;26.40;101664.00;;;;5053749;28;20190;-64
2023/07/06 17:53:49;;;;;;;0.90;0.90;;;23.30;99.90;27.70;101624.00;;;;5053645;28;20196;-65
2023/07/06 17:56:19;;;;;;;0.17;0.17;;;23.50;99.90;27.30;101661.00;;;;5053766;28;20269;-65
2023/07/06 17:58:52;;;;;;;0.10;0.10;;;23.60;99.90;27.30;101659.00;;;;5053090;28;20220;-65
2023/07/06 18:01:21;;;;;;;0.10;0.10;;;23.40;99.90;28.40;101649.00;;;;5053304;28;20209;-64
2023/07/06 18:03:58;;;;;;;0.10;0.10;;;23.90;99.90;28.50;101646.00;;;;5051791;28;20240;-65
2023/07/06 18:06:33;;;;;;;0.10;0.10;;;24.10;99.90;28.80;101652.00;;;;5051363;28;20199;-65
2023/07/06 18:09:02;;;;;;;0.10;0.10;;;24.30;99.90;29.10;101645.00;;;;5052076;28;20188;-65
2023/07/06 18:11:36;;;;;;;0.30;0.30;;;24.50;99.90;28.50;101657.00;;;;5052954;28;20216;-65
2023/07/06 18:14:07;;;;;;;0.10;0.10;;;24.40;99.90;27.80;101664.00;;;;5043612;28;20186;-65
2023/07/06 18:16:38;;;;;;;0.10;0.10;;;24.00;99.90;27.50;101665.00;;;;5048078;28;20210;-65
2023/07/06 18:19:07;;;;;;;0.50;0.50;;;23.80;99.90;27.70;101670.00;;;;5052807;28;20206;-65
2023/07/06 18:21:36;;;;;;;0.13;0.13;;;23.70;99.90;27.00;101672.00;;;;5053111;28;20701;-65
2023/07/06 18:24:06;;;;;;;0.10;0.10;;;23.40;99.90;27.10;101674.00;;;;5053261;28;20186;-65
2023/07/06 18:26:35;;;;;;;0.68;0.68;;;23.20;99.90;27.00;101680.00;;;;5060010;28;20185;-65
2023/07/06 18:29:03;;;;;;;0.63;0.50;;;23.40;99.90;26.60;101683.00;;;;5052763;28;20263;-65